sensor_id;sensor_type;location;lat;lon;timestamp;P1;durP1;ratioP1;P2;durP2;ratioP2
76953;SDS011;65893;51.698;-0.292;2023-04-06T00:01:09;24.52;;;11.40;;
76953;SDS011;65893;51.698;-0.292;2023-04-06T00:03:36;24.08;;;11.40;;
76953;SDS011;65893;51.698;-0.292;2023-04-06T00:06:02;24.65;;;11.23;;
76953;SDS011;65893;51.698;-0.292;2023-04-06T00:08:28;24.83;;;11.65;;
76953;SDS011;65893;51.698;-0.292;2023-04-06T00:10:54;25.67;;;11.80;;
76953;SDS011;65893;51.698;-0.292;2023-04-06T00:13:20;21.60;;;11.05;;
76953;SDS011;65893;51.698;-0.292;2023-04-06T00:15:46;26.25;;;11.65;;
76953;SDS011;65893;51.698;-0.292;2023-04-06T00:18:12;23.00;;;10.48;;
76953;SDS011;65893;51.698;-0.292;2023-04-06T00:20:39;21.38;;;10.20;;
76953;SDS011;65893;51.698;-0.292;2023-04-06T00:23:05;21.88;;;9.55;;
76953;SDS011;65893;51.698;-0.292;2023-04-06T00:25:31;23.27;;;8.40;;
76953;SDS011;65893;51.698;-0.292;2023-04-06T00:27:57;18.98;;;8.48;;
76953;SDS011;65893;51.698;-0.292;2023-04-06T00:30:23;15.77;;;6.78;;
76953;SDS011;65893;51.698;-0.292;2023-04-06T00:32:50;16.92;;;7.47;;
76953;SDS011;65893;51.698;-0.292;2023-04-06T00:35:16;16.35;;;7.97;;
76953;SDS011;65893;51.698;-0.292;2023-04-06T00:37:42;16.27;;;7.35;;
76953;SDS011;65893;51.698;-0.292;2023-04-06T00:40:08;17.40;;;7.80;;
76953;SDS011;65893;51.698;-0.292;2023-04-06T00:42:34;17.60;;;7.97;;
76953;SDS011;65893;51.698;-0.292;2023-04-06T00:45:00;18.13;;;7.88;;
76953;SDS011;65893;51.698;-0.292;2023-04-06T00:47:27;17.02;;;7.13;;
76953;SDS011;65893;51.698;-0.292;2023-04-06T00:49:53;20.33;;;8.23;;
76953;SDS011;65893;51.698;-0.292;2023-04-06T00:52:20;20.67;;;7.68;;
76953;SDS011;65893;51.698;-0.292;2023-04-06T00:54:46;18.85;;;8.13;;
76953;SDS011;65893;51.698;-0.292;2023-04-06T00:57:12;17.33;;;7.80;;
76953;SDS011;65893;51.698;-0.292;2023-04-06T00:59:39;10.90;;;5.50;;
76953;SDS011;65893;51.698;-0.292;2023-04-06T01:02:05;15.13;;;7.28;;
76953;SDS011;65893;51.698;-0.292;2023-04-06T01:04:31;13.50;;;5.88;;
76953;SDS011;65893;51.698;-0.292;2023-04-06T01:06:57;16.77;;;7.07;;
76953;SDS011;65893;51.698;-0.292;2023-04-06T01:09:23;14.82;;;7.30;;
76953;SDS011;65893;51.698;-0.292;2023-04-06T01:11:50;13.05;;;5.90;;
76953;SDS011;65893;51.698;-0.292;2023-04-06T01:14:16;14.20;;;6.82;;
76953;SDS011;65893;51.698;-0.292;2023-04-06T01:16:42;15.35;;;6.93;;
76953;SDS011;65893;51.698;-0.292;2023-04-06T01:19:08;14.43;;;6.72;;
76953;SDS011;65893;51.698;-0.292;2023-04-06T01:21:41;15.98;;;6.53;;
76953;SDS011;65893;51.698;-0.292;2023-04-06T01:24:07;13.93;;;6.57;;
76953;SDS011;65893;51.698;-0.292;2023-04-06T01:26:34;15.45;;;6.93;;
76953;SDS011;65893;51.698;-0.292;2023-04-06T01:29:00;14.65;;;6.55;;
76953;SDS011;65893;51.698;-0.292;2023-04-06T01:31:27;14.23;;;6.53;;
76953;SDS011;65893;51.698;-0.292;2023-04-06T01:33:53;13.48;;;6.65;;
76953;SDS011;65893;51.698;-0.292;2023-04-06T01:36:19;15.85;;;7.07;;
76953;SDS011;65893;51.698;-0.292;2023-04-06T01:38:45;9.48;;;4.55;;
76953;SDS011;65893;51.698;-0.292;2023-04-06T01:41:11;14.52;;;6.40;;
76953;SDS011;65893;51.698;-0.292;2023-04-06T01:43:37;15.13;;;6.43;;
76953;SDS011;65893;51.698;-0.292;2023-04-06T01:46:04;12.70;;;4.88;;
76953;SDS011;65893;51.698;-0.292;2023-04-06T01:48:31;13.38;;;5.78;;
76953;SDS011;65893;51.698;-0.292;2023-04-06T01:50:57;12.75;;;5.57;;
76953;SDS011;65893;51.698;-0.292;2023-04-06T01:53:23;13.43;;;6.20;;
76953;SDS011;65893;51.698;-0.292;2023-04-06T01:55:49;15.50;;;6.30;;
76953;SDS011;65893;51.698;-0.292;2023-04-06T01:58:15;11.40;;;5.07;;
76953;SDS011;65893;51.698;-0.292;2023-04-06T02:00:42;13.70;;;5.70;;
76953;SDS011;65893;51.698;-0.292;2023-04-06T02:03:08;12.25;;;4.72;;
76953;SDS011;65893;51.698;-0.292;2023-04-06T02:05:34;12.70;;;5.60;;
76953;SDS011;65893;51.698;-0.292;2023-04-06T02:08:03;14.45;;;5.93;;
76953;SDS011;65893;51.698;-0.292;2023-04-06T02:10:30;13.98;;;6.25;;
76953;SDS011;65893;51.698;-0.292;2023-04-06T02:12:56;12.02;;;5.32;;
76953;SDS011;65893;51.698;-0.292;2023-04-06T02:15:22;11.23;;;5.20;;
76953;SDS011;65893;51.698;-0.292;2023-04-06T02:17:48;11.05;;;4.90;;
76953;SDS011;65893;51.698;-0.292;2023-04-06T02:20:14;13.23;;;5.30;;
76953;SDS011;65893;51.698;-0.292;2023-04-06T02:22:40;12.35;;;5.10;;
76953;SDS011;65893;51.698;-0.292;2023-04-06T02:25:06;14.00;;;5.70;;
76953;SDS011;65893;51.698;-0.292;2023-04-06T02:27:32;11.10;;;4.78;;
76953;SDS011;65893;51.698;-0.292;2023-04-06T02:29:58;10.65;;;4.90;;
76953;SDS011;65893;51.698;-0.292;2023-04-06T02:32:24;12.85;;;5.13;;
76953;SDS011;65893;51.698;-0.292;2023-04-06T02:34:51;10.70;;;4.38;;
76953;SDS011;65893;51.698;-0.292;2023-04-06T02:37:17;12.65;;;4.72;;
76953;SDS011;65893;51.698;-0.292;2023-04-06T02:39:43;10.07;;;3.83;;
76953;SDS011;65893;51.698;-0.292;2023-04-06T02:42:09;10.88;;;4.93;;
76953;SDS011;65893;51.698;-0.292;2023-04-06T02:44:35;6.57;;;2.70;;
76953;SDS011;65893;51.698;-0.292;2023-04-06T02:47:01;5.72;;;2.65;;
76953;SDS011;65893;51.698;-0.292;2023-04-06T02:49:27;10.55;;;4.72;;
76953;SDS011;65893;51.698;-0.292;2023-04-06T02:51:53;9.60;;;3.95;;
76953;SDS011;65893;51.698;-0.292;2023-04-06T02:54:19;11.82;;;4.82;;
76953;SDS011;65893;51.698;-0.292;2023-04-06T02:56:45;9.55;;;4.03;;
76953;SDS011;65893;51.698;-0.292;2023-04-06T02:59:11;10.60;;;3.92;;
76953;SDS011;65893;51.698;-0.292;2023-04-06T03:01:37;8.20;;;3.90;;
76953;SDS011;65893;51.698;-0.292;2023-04-06T03:04:03;8.68;;;3.95;;
76953;SDS011;65893;51.698;-0.292;2023-04-06T03:06:29;8.90;;;3.63;;
76953;SDS011;65893;51.698;-0.292;2023-04-06T03:08:56;9.38;;;3.85;;
76953;SDS011;65893;51.698;-0.292;2023-04-06T03:11:22;10.13;;;4.45;;
76953;SDS011;65893;51.698;-0.292;2023-04-06T03:13:48;9.68;;;4.30;;
76953;SDS011;65893;51.698;-0.292;2023-04-06T03:16:14;10.63;;;4.50;;
76953;SDS011;65893;51.698;-0.292;2023-04-06T03:18:40;12.60;;;4.68;;
76953;SDS011;65893;51.698;-0.292;2023-04-06T03:21:06;11.48;;;5.30;;
76953;SDS011;65893;51.698;-0.292;2023-04-06T03:23:32;12.15;;;5.65;;
76953;SDS011;65893;51.698;-0.292;2023-04-06T03:25:58;10.73;;;5.28;;
76953;SDS011;65893;51.698;-0.292;2023-04-06T03:28:24;10.98;;;5.47;;
76953;SDS011;65893;51.698;-0.292;2023-04-06T03:30:50;12.00;;;4.80;;
76953;SDS011;65893;51.698;-0.292;2023-04-06T03:33:16;13.70;;;5.68;;
76953;SDS011;65893;51.698;-0.292;2023-04-06T03:35:42;12.55;;;5.72;;
76953;SDS011;65893;51.698;-0.292;2023-04-06T03:38:08;12.18;;;5.25;;
76953;SDS011;65893;51.698;-0.292;2023-04-06T03:40:34;15.27;;;5.32;;
76953;SDS011;65893;51.698;-0.292;2023-04-06T03:43:00;12.23;;;5.05;;
76953;SDS011;65893;51.698;-0.292;2023-04-06T03:45:26;12.80;;;5.82;;
76953;SDS011;65893;51.698;-0.292;2023-04-06T03:47:52;13.32;;;5.57;;
76953;SDS011;65893;51.698;-0.292;2023-04-06T03:50:18;10.50;;;4.80;;
76953;SDS011;65893;51.698;-0.292;2023-04-06T03:52:45;11.18;;;5.07;;
76953;SDS011;65893;51.698;-0.292;2023-04-06T03:55:11;13.80;;;6.32;;
76953;SDS011;65893;51.698;-0.292;2023-04-06T03:57:37;11.95;;;5.55;;
76953;SDS011;65893;51.698;-0.292;2023-04-06T04:00:03;15.68;;;5.97;;
76953;SDS011;65893;51.698;-0.292;2023-04-06T04:02:29;13.18;;;6.00;;
76953;SDS011;65893;51.698;-0.292;2023-04-06T04:04:55;15.65;;;6.45;;
76953;SDS011;65893;51.698;-0.292;2023-04-06T04:07:21;13.93;;;5.60;;
76953;SDS011;65893;51.698;-0.292;2023-04-06T04:09:47;10.48;;;5.05;;
76953;SDS011;65893;51.698;-0.292;2023-04-06T04:12:13;12.10;;;6.00;;
76953;SDS011;65893;51.698;-0.292;2023-04-06T04:14:41;11.82;;;5.80;;
76953;SDS011;65893;51.698;-0.292;2023-04-06T04:17:08;11.85;;;5.75;;
76953;SDS011;65893;51.698;-0.292;2023-04-06T04:19:35;11.48;;;5.13;;
76953;SDS011;65893;51.698;-0.292;2023-04-06T04:22:01;15.43;;;6.18;;
76953;SDS011;65893;51.698;-0.292;2023-04-06T04:24:29;16.08;;;6.28;;
76953;SDS011;65893;51.698;-0.292;2023-04-06T04:26:55;12.75;;;5.32;;
76953;SDS011;65893;51.698;-0.292;2023-04-06T04:29:22;17.35;;;6.30;;
76953;SDS011;65893;51.698;-0.292;2023-04-06T04:31:48;16.98;;;5.97;;
76953;SDS011;65893;51.698;-0.292;2023-04-06T04:34:14;15.18;;;6.47;;
76953;SDS011;65893;51.698;-0.292;2023-04-06T04:36:41;13.95;;;6.63;;
76953;SDS011;65893;51.698;-0.292;2023-04-06T04:39:07;15.73;;;7.03;;
76953;SDS011;65893;51.698;-0.292;2023-04-06T04:41:33;17.45;;;7.05;;
76953;SDS011;65893;51.698;-0.292;2023-04-06T04:44:00;12.23;;;5.80;;
76953;SDS011;65893;51.698;-0.292;2023-04-06T04:46:26;13.43;;;6.07;;
76953;SDS011;65893;51.698;-0.292;2023-04-06T04:48:52;14.13;;;5.53;;
76953;SDS011;65893;51.698;-0.292;2023-04-06T04:51:18;12.07;;;6.60;;
76953;SDS011;65893;51.698;-0.292;2023-04-06T04:53:45;13.02;;;6.07;;
76953;SDS011;65893;51.698;-0.292;2023-04-06T04:56:11;14.63;;;6.40;;
76953;SDS011;65893;51.698;-0.292;2023-04-06T04:58:37;13.32;;;5.95;;
76953;SDS011;65893;51.698;-0.292;2023-04-06T05:01:03;13.95;;;7.22;;
76953;SDS011;65893;51.698;-0.292;2023-04-06T05:03:29;15.23;;;7.03;;
76953;SDS011;65893;51.698;-0.292;2023-04-06T05:05:55;14.00;;;6.53;;
76953;SDS011;65893;51.698;-0.292;2023-04-06T05:08:21;15.10;;;7.47;;
76953;SDS011;65893;51.698;-0.292;2023-04-06T05:10:47;15.20;;;6.63;;
76953;SDS011;65893;51.698;-0.292;2023-04-06T05:13:14;12.85;;;5.75;;
76953;SDS011;65893;51.698;-0.292;2023-04-06T05:15:40;13.85;;;6.07;;
76953;SDS011;65893;51.698;-0.292;2023-04-06T05:18:07;11.88;;;6.30;;
76953;SDS011;65893;51.698;-0.292;2023-04-06T05:20:33;14.32;;;6.32;;
76953;SDS011;65893;51.698;-0.292;2023-04-06T05:22:59;12.55;;;5.03;;
76953;SDS011;65893;51.698;-0.292;2023-04-06T05:25:25;9.05;;;4.60;;
76953;SDS011;65893;51.698;-0.292;2023-04-06T05:27:52;13.57;;;6.40;;
76953;SDS011;65893;51.698;-0.292;2023-04-06T05:30:18;7.47;;;3.47;;
76953;SDS011;65893;51.698;-0.292;2023-04-06T05:32:44;13.45;;;5.97;;
76953;SDS011;65893;51.698;-0.292;2023-04-06T05:35:10;14.43;;;5.70;;
76953;SDS011;65893;51.698;-0.292;2023-04-06T05:37:39;14.45;;;5.93;;
76953;SDS011;65893;51.698;-0.292;2023-04-06T05:40:05;13.85;;;6.22;;
76953;SDS011;65893;51.698;-0.292;2023-04-06T05:42:38;15.75;;;6.78;;
76953;SDS011;65893;51.698;-0.292;2023-04-06T05:45:04;16.42;;;6.03;;
76953;SDS011;65893;51.698;-0.292;2023-04-06T05:47:31;13.85;;;5.85;;
76953;SDS011;65893;51.698;-0.292;2023-04-06T05:49:57;14.40;;;6.15;;
76953;SDS011;65893;51.698;-0.292;2023-04-06T05:52:23;12.20;;;5.72;;
76953;SDS011;65893;51.698;-0.292;2023-04-06T05:54:49;15.07;;;5.68;;
76953;SDS011;65893;51.698;-0.292;2023-04-06T05:57:15;13.73;;;6.22;;
76953;SDS011;65893;51.698;-0.292;2023-04-06T05:59:41;15.90;;;7.07;;
76953;SDS011;65893;51.698;-0.292;2023-04-06T06:02:07;16.80;;;6.10;;
76953;SDS011;65893;51.698;-0.292;2023-04-06T06:04:33;14.20;;;6.03;;
76953;SDS011;65893;51.698;-0.292;2023-04-06T06:07:00;16.20;;;6.72;;
76953;SDS011;65893;51.698;-0.292;2023-04-06T06:09:26;13.75;;;6.13;;
76953;SDS011;65893;51.698;-0.292;2023-04-06T06:11:52;15.70;;;7.13;;
76953;SDS011;65893;51.698;-0.292;2023-04-06T06:14:18;13.57;;;6.20;;
76953;SDS011;65893;51.698;-0.292;2023-04-06T06:16:45;18.83;;;5.75;;
76953;SDS011;65893;51.698;-0.292;2023-04-06T06:19:11;12.77;;;6.63;;
76953;SDS011;65893;51.698;-0.292;2023-04-06T06:21:37;17.70;;;6.43;;
76953;SDS011;65893;51.698;-0.292;2023-04-06T06:24:03;13.00;;;6.20;;
76953;SDS011;65893;51.698;-0.292;2023-04-06T06:26:29;12.38;;;5.63;;
76953;SDS011;65893;51.698;-0.292;2023-04-06T06:28:56;13.30;;;6.28;;
76953;SDS011;65893;51.698;-0.292;2023-04-06T06:31:22;13.70;;;5.35;;
76953;SDS011;65893;51.698;-0.292;2023-04-06T06:33:49;12.60;;;5.05;;
76953;SDS011;65893;51.698;-0.292;2023-04-06T06:36:16;13.15;;;6.43;;
76953;SDS011;65893;51.698;-0.292;2023-04-06T06:38:43;10.82;;;4.30;;
76953;SDS011;65893;51.698;-0.292;2023-04-06T06:41:09;4.00;;;1.60;;
76953;SDS011;65893;51.698;-0.292;2023-04-06T06:43:35;15.48;;;5.70;;
76953;SDS011;65893;51.698;-0.292;2023-04-06T06:46:01;11.95;;;4.90;;
76953;SDS011;65893;51.698;-0.292;2023-04-06T06:48:27;11.82;;;5.63;;
76953;SDS011;65893;51.698;-0.292;2023-04-06T06:50:53;78.85;;;17.38;;
76953;SDS011;65893;51.698;-0.292;2023-04-06T06:53:19;14.52;;;5.30;;
76953;SDS011;65893;51.698;-0.292;2023-04-06T06:55:45;10.57;;;4.88;;
76953;SDS011;65893;51.698;-0.292;2023-04-06T06:58:14;13.00;;;5.07;;
76953;SDS011;65893;51.698;-0.292;2023-04-06T07:00:40;10.98;;;4.97;;
76953;SDS011;65893;51.698;-0.292;2023-04-06T07:03:06;11.32;;;4.55;;
76953;SDS011;65893;51.698;-0.292;2023-04-06T07:05:32;11.98;;;4.55;;
76953;SDS011;65893;51.698;-0.292;2023-04-06T07:07:58;10.65;;;5.15;;
76953;SDS011;65893;51.698;-0.292;2023-04-06T07:10:24;11.25;;;4.85;;
76953;SDS011;65893;51.698;-0.292;2023-04-06T07:12:51;9.07;;;4.32;;
76953;SDS011;65893;51.698;-0.292;2023-04-06T07:15:17;11.20;;;4.85;;
76953;SDS011;65893;51.698;-0.292;2023-04-06T07:17:43;12.18;;;4.03;;
76953;SDS011;65893;51.698;-0.292;2023-04-06T07:20:12;9.43;;;3.88;;
76953;SDS011;65893;51.698;-0.292;2023-04-06T07:22:38;8.65;;;4.22;;
76953;SDS011;65893;51.698;-0.292;2023-04-06T07:25:04;52.35;;;7.97;;
76953;SDS011;65893;51.698;-0.292;2023-04-06T07:27:31;9.77;;;4.43;;
76953;SDS011;65893;51.698;-0.292;2023-04-06T07:29:57;9.13;;;3.95;;
76953;SDS011;65893;51.698;-0.292;2023-04-06T07:32:23;8.88;;;4.28;;
76953;SDS011;65893;51.698;-0.292;2023-04-06T07:34:49;23.85;;;4.18;;
76953;SDS011;65893;51.698;-0.292;2023-04-06T07:37:15;8.80;;;3.90;;
76953;SDS011;65893;51.698;-0.292;2023-04-06T07:39:41;12.25;;;4.78;;
76953;SDS011;65893;51.698;-0.292;2023-04-06T07:42:07;9.98;;;4.55;;
76953;SDS011;65893;51.698;-0.292;2023-04-06T07:44:33;13.85;;;4.82;;
76953;SDS011;65893;51.698;-0.292;2023-04-06T07:46:59;10.55;;;5.25;;
76953;SDS011;65893;51.698;-0.292;2023-04-06T07:49:25;48.13;;;6.97;;
76953;SDS011;65893;51.698;-0.292;2023-04-06T07:51:51;10.88;;;4.30;;
76953;SDS011;65893;51.698;-0.292;2023-04-06T07:54:17;13.80;;;5.22;;
76953;SDS011;65893;51.698;-0.292;2023-04-06T07:56:44;10.30;;;4.43;;
76953;SDS011;65893;51.698;-0.292;2023-04-06T07:59:10;12.80;;;6.20;;
76953;SDS011;65893;51.698;-0.292;2023-04-06T08:01:36;11.15;;;4.93;;
76953;SDS011;65893;51.698;-0.292;2023-04-06T08:04:02;11.45;;;4.90;;
76953;SDS011;65893;51.698;-0.292;2023-04-06T08:06:28;9.45;;;4.40;;
76953;SDS011;65893;51.698;-0.292;2023-04-06T08:08:55;15.13;;;5.00;;
76953;SDS011;65893;51.698;-0.292;2023-04-06T08:11:21;9.90;;;4.95;;
76953;SDS011;65893;51.698;-0.292;2023-04-06T08:13:47;11.27;;;4.05;;
76953;SDS011;65893;51.698;-0.292;2023-04-06T08:16:13;13.85;;;4.20;;
76953;SDS011;65893;51.698;-0.292;2023-04-06T08:18:39;8.23;;;3.67;;
76953;SDS011;65893;51.698;-0.292;2023-04-06T08:21:05;19.30;;;4.78;;
76953;SDS011;65893;51.698;-0.292;2023-04-06T08:23:32;11.23;;;4.40;;
76953;SDS011;65893;51.698;-0.292;2023-04-06T08:25:58;10.02;;;3.95;;
76953;SDS011;65893;51.698;-0.292;2023-04-06T08:28:24;10.35;;;3.28;;
76953;SDS011;65893;51.698;-0.292;2023-04-06T08:30:50;10.57;;;3.35;;
76953;SDS011;65893;51.698;-0.292;2023-04-06T08:33:16;9.10;;;3.20;;
76953;SDS011;65893;51.698;-0.292;2023-04-06T08:35:42;10.38;;;3.75;;
76953;SDS011;65893;51.698;-0.292;2023-04-06T08:38:08;13.55;;;3.30;;
76953;SDS011;65893;51.698;-0.292;2023-04-06T08:40:37;12.15;;;3.00;;
76953;SDS011;65893;51.698;-0.292;2023-04-06T08:43:03;16.77;;;3.35;;
76953;SDS011;65893;51.698;-0.292;2023-04-06T08:45:33;10.50;;;2.40;;
76953;SDS011;65893;51.698;-0.292;2023-04-06T08:47:59;8.88;;;2.90;;
76953;SDS011;65893;51.698;-0.292;2023-04-06T08:50:27;10.35;;;2.67;;
76953;SDS011;65893;51.698;-0.292;2023-04-06T08:52:54;7.68;;;2.15;;
76953;SDS011;65893;51.698;-0.292;2023-04-06T08:55:20;13.73;;;3.22;;
76953;SDS011;65893;51.698;-0.292;2023-04-06T08:57:47;12.57;;;2.92;;
76953;SDS011;65893;51.698;-0.292;2023-04-06T09:00:14;6.28;;;2.13;;
76953;SDS011;65893;51.698;-0.292;2023-04-06T09:02:42;8.93;;;2.35;;
76953;SDS011;65893;51.698;-0.292;2023-04-06T09:05:10;12.38;;;3.00;;
76953;SDS011;65893;51.698;-0.292;2023-04-06T09:07:36;12.45;;;2.40;;
76953;SDS011;65893;51.698;-0.292;2023-04-06T09:10:04;10.73;;;2.70;;
76953;SDS011;65893;51.698;-0.292;2023-04-06T09:12:31;10.50;;;3.08;;
76953;SDS011;65893;51.698;-0.292;2023-04-06T09:14:57;11.57;;;3.55;;
76953;SDS011;65893;51.698;-0.292;2023-04-06T09:17:24;8.57;;;2.70;;
76953;SDS011;65893;51.698;-0.292;2023-04-06T09:19:57;7.65;;;2.28;;
76953;SDS011;65893;51.698;-0.292;2023-04-06T09:22:23;11.88;;;2.17;;
76953;SDS011;65893;51.698;-0.292;2023-04-06T09:24:52;7.10;;;2.05;;
76953;SDS011;65893;51.698;-0.292;2023-04-06T09:27:29;8.85;;;1.88;;
76953;SDS011;65893;51.698;-0.292;2023-04-06T09:30:02;7.95;;;2.10;;
76953;SDS011;65893;51.698;-0.292;2023-04-06T09:32:31;3.17;;;1.30;;
76953;SDS011;65893;51.698;-0.292;2023-04-06T09:35:07;6.85;;;1.20;;
76953;SDS011;65893;51.698;-0.292;2023-04-06T09:37:35;6.47;;;2.17;;
76953;SDS011;65893;51.698;-0.292;2023-04-06T09:40:02;4.07;;;1.35;;
76953;SDS011;65893;51.698;-0.292;2023-04-06T09:42:30;6.82;;;1.27;;
76953;SDS011;65893;51.698;-0.292;2023-04-06T09:44:57;2.17;;;0.70;;
76953;SDS011;65893;51.698;-0.292;2023-04-06T09:47:23;5.82;;;1.30;;
76953;SDS011;65893;51.698;-0.292;2023-04-06T09:49:55;4.75;;;1.10;;
76953;SDS011;65893;51.698;-0.292;2023-04-06T09:52:23;6.22;;;1.25;;
76953;SDS011;65893;51.698;-0.292;2023-04-06T09:54:52;5.28;;;1.67;;
76953;SDS011;65893;51.698;-0.292;2023-04-06T10:00:06;5.32;;;1.10;;
76953;SDS011;65893;51.698;-0.292;2023-04-06T10:02:45;3.67;;;1.05;;
76953;SDS011;65893;51.698;-0.292;2023-04-06T10:05:19;3.47;;;1.00;;
76953;SDS011;65893;51.698;-0.292;2023-04-06T10:10:22;2.90;;;0.60;;
76953;SDS011;65893;51.698;-0.292;2023-04-06T10:12:48;2.03;;;0.60;;
76953;SDS011;65893;51.698;-0.292;2023-04-06T10:15:21;2.55;;;0.50;;
76953;SDS011;65893;51.698;-0.292;2023-04-06T10:17:47;2.63;;;0.60;;
76953;SDS011;65893;51.698;-0.292;2023-04-06T10:22:55;2.15;;;0.70;;
76953;SDS011;65893;51.698;-0.292;2023-04-06T10:25:28;1.83;;;0.70;;
76953;SDS011;65893;51.698;-0.292;2023-04-06T10:28:30;2.10;;;0.77;;
76953;SDS011;65893;51.698;-0.292;2023-04-06T10:30:47;3.00;;;0.85;;
76953;SDS011;65893;51.698;-0.292;2023-04-06T10:33:15;0.70;;;0.40;;
76953;SDS011;65893;51.698;-0.292;2023-04-06T10:35:42;5.03;;;0.82;;
76953;SDS011;65893;51.698;-0.292;2023-04-06T10:38:08;2.55;;;0.88;;
76953;SDS011;65893;51.698;-0.292;2023-04-06T10:40:38;1.70;;;0.80;;
76953;SDS011;65893;51.698;-0.292;2023-04-06T10:43:18;2.30;;;1.00;;
76953;SDS011;65893;51.698;-0.292;2023-04-06T10:45:44;4.70;;;1.05;;
76953;SDS011;65893;51.698;-0.292;2023-04-06T10:50:44;5.47;;;1.17;;
76953;SDS011;65893;51.698;-0.292;2023-04-06T10:53:10;2.75;;;0.80;;
76953;SDS011;65893;51.698;-0.292;2023-04-06T10:55:43;3.40;;;0.77;;
76953;SDS011;65893;51.698;-0.292;2023-04-06T10:58:09;3.67;;;1.02;;
76953;SDS011;65893;51.698;-0.292;2023-04-06T11:00:36;3.08;;;1.33;;
76953;SDS011;65893;51.698;-0.292;2023-04-06T11:03:09;3.00;;;0.80;;
76953;SDS011;65893;51.698;-0.292;2023-04-06T11:05:35;1.05;;;0.52;;
76953;SDS011;65893;51.698;-0.292;2023-04-06T11:08:01;4.63;;;1.00;;
76953;SDS011;65893;51.698;-0.292;2023-04-06T11:10:27;3.42;;;0.80;;
76953;SDS011;65893;51.698;-0.292;2023-04-06T11:12:55;4.18;;;0.90;;
76953;SDS011;65893;51.698;-0.292;2023-04-06T11:15:33;4.90;;;1.08;;
76953;SDS011;65893;51.698;-0.292;2023-04-06T11:18:05;2.33;;;0.75;;
76953;SDS011;65893;51.698;-0.292;2023-04-06T11:20:31;3.28;;;1.02;;
76953;SDS011;65893;51.698;-0.292;2023-04-06T11:22:57;3.30;;;1.05;;
76953;SDS011;65893;51.698;-0.292;2023-04-06T11:25:25;2.25;;;0.50;;
76953;SDS011;65893;51.698;-0.292;2023-04-06T11:27:52;2.70;;;0.70;;
76953;SDS011;65893;51.698;-0.292;2023-04-06T11:30:19;3.85;;;1.05;;
76953;SDS011;65893;51.698;-0.292;2023-04-06T11:32:46;2.33;;;0.98;;
76953;SDS011;65893;51.698;-0.292;2023-04-06T11:35:21;2.28;;;0.75;;
76953;SDS011;65893;51.698;-0.292;2023-04-06T11:37:48;2.38;;;0.75;;
76953;SDS011;65893;51.698;-0.292;2023-04-06T11:40:20;2.35;;;0.68;;
76953;SDS011;65893;51.698;-0.292;2023-04-06T11:42:53;1.65;;;0.70;;
76953;SDS011;65893;51.698;-0.292;2023-04-06T11:45:20;3.75;;;0.85;;
76953;SDS011;65893;51.698;-0.292;2023-04-06T11:47:54;7.18;;;0.80;;
76953;SDS011;65893;51.698;-0.292;2023-04-06T11:50:21;5.18;;;0.95;;
76953;SDS011;65893;51.698;-0.292;2023-04-06T11:52:47;5.43;;;1.00;;
76953;SDS011;65893;51.698;-0.292;2023-04-06T11:55:23;2.33;;;0.82;;
76953;SDS011;65893;51.698;-0.292;2023-04-06T11:57:49;1.92;;;0.63;;
76953;SDS011;65893;51.698;-0.292;2023-04-06T12:00:16;3.15;;;0.77;;
76953;SDS011;65893;51.698;-0.292;2023-04-06T12:02:45;1.85;;;0.52;;
76953;SDS011;65893;51.698;-0.292;2023-04-06T12:05:11;4.47;;;0.77;;
76953;SDS011;65893;51.698;-0.292;2023-04-06T12:07:38;7.72;;;0.98;;
76953;SDS011;65893;51.698;-0.292;2023-04-06T12:10:04;1.73;;;0.65;;
76953;SDS011;65893;51.698;-0.292;2023-04-06T12:12:30;4.97;;;1.00;;
76953;SDS011;65893;51.698;-0.292;2023-04-06T12:14:56;3.00;;;0.70;;
76953;SDS011;65893;51.698;-0.292;2023-04-06T12:17:23;4.25;;;0.90;;
76953;SDS011;65893;51.698;-0.292;2023-04-06T12:19:49;2.50;;;0.45;;
76953;SDS011;65893;51.698;-0.292;2023-04-06T12:22:16;1.95;;;0.60;;
76953;SDS011;65893;51.698;-0.292;2023-04-06T12:24:42;3.90;;;0.98;;
76953;SDS011;65893;51.698;-0.292;2023-04-06T12:27:08;6.88;;;1.10;;
76953;SDS011;65893;51.698;-0.292;2023-04-06T12:29:36;1.85;;;0.63;;
76953;SDS011;65893;51.698;-0.292;2023-04-06T12:32:02;3.20;;;0.95;;
76953;SDS011;65893;51.698;-0.292;2023-04-06T12:34:28;5.47;;;0.77;;
76953;SDS011;65893;51.698;-0.292;2023-04-06T12:36:55;2.63;;;0.65;;
76953;SDS011;65893;51.698;-0.292;2023-04-06T12:39:21;4.65;;;1.10;;
76953;SDS011;65893;51.698;-0.292;2023-04-06T12:41:47;2.58;;;0.65;;
76953;SDS011;65893;51.698;-0.292;2023-04-06T12:44:13;3.13;;;0.70;;
76953;SDS011;65893;51.698;-0.292;2023-04-06T12:46:39;2.65;;;0.65;;
76953;SDS011;65893;51.698;-0.292;2023-04-06T12:49:08;5.78;;;1.10;;
76953;SDS011;65893;51.698;-0.292;2023-04-06T12:51:35;2.33;;;0.60;;
76953;SDS011;65893;51.698;-0.292;2023-04-06T12:54:02;2.22;;;0.70;;
76953;SDS011;65893;51.698;-0.292;2023-04-06T12:56:29;5.18;;;0.82;;
76953;SDS011;65893;51.698;-0.292;2023-04-06T12:58:56;3.90;;;0.98;;
76953;SDS011;65893;51.698;-0.292;2023-04-06T13:01:22;4.20;;;1.08;;
76953;SDS011;65893;51.698;-0.292;2023-04-06T13:03:48;9.05;;;0.90;;
76953;SDS011;65893;51.698;-0.292;2023-04-06T13:06:15;3.97;;;0.88;;
76953;SDS011;65893;51.698;-0.292;2023-04-06T13:11:12;2.38;;;0.30;;
76953;SDS011;65893;51.698;-0.292;2023-04-06T13:13:40;1.02;;;0.40;;
76953;SDS011;65893;51.698;-0.292;2023-04-06T13:16:07;1.15;;;0.47;;
76953;SDS011;65893;51.698;-0.292;2023-04-06T13:18:33;4.30;;;0.88;;
76953;SDS011;65893;51.698;-0.292;2023-04-06T13:21:01;7.32;;;0.93;;
76953;SDS011;65893;51.698;-0.292;2023-04-06T13:23:27;4.22;;;1.05;;
76953;SDS011;65893;51.698;-0.292;2023-04-06T13:26:00;5.38;;;0.70;;
76953;SDS011;65893;51.698;-0.292;2023-04-06T13:28:28;4.95;;;0.80;;
76953;SDS011;65893;51.698;-0.292;2023-04-06T13:30:54;9.40;;;0.90;;
76953;SDS011;65893;51.698;-0.292;2023-04-06T13:33:20;1.17;;;0.50;;
76953;SDS011;65893;51.698;-0.292;2023-04-06T13:35:46;3.95;;;0.90;;
76953;SDS011;65893;51.698;-0.292;2023-04-06T13:38:13;2.00;;;0.60;;
76953;SDS011;65893;51.698;-0.292;2023-04-06T13:40:39;5.03;;;1.10;;
76953;SDS011;65893;51.698;-0.292;2023-04-06T13:43:06;3.30;;;0.77;;
76953;SDS011;65893;51.698;-0.292;2023-04-06T13:45:32;3.63;;;1.13;;
76953;SDS011;65893;51.698;-0.292;2023-04-06T13:47:58;4.35;;;0.90;;
76953;SDS011;65893;51.698;-0.292;2023-04-06T13:50:25;6.13;;;1.00;;
76953;SDS011;65893;51.698;-0.292;2023-04-06T13:52:51;3.67;;;0.90;;
76953;SDS011;65893;51.698;-0.292;2023-04-06T13:55:18;2.10;;;0.75;;
76953;SDS011;65893;51.698;-0.292;2023-04-06T13:57:44;2.47;;;0.63;;
76953;SDS011;65893;51.698;-0.292;2023-04-06T14:00:10;5.75;;;0.90;;
76953;SDS011;65893;51.698;-0.292;2023-04-06T14:02:37;3.28;;;0.60;;
76953;SDS011;65893;51.698;-0.292;2023-04-06T14:05:03;5.43;;;0.80;;
76953;SDS011;65893;51.698;-0.292;2023-04-06T14:07:30;5.47;;;1.00;;
76953;SDS011;65893;51.698;-0.292;2023-04-06T14:09:56;2.78;;;0.80;;
76953;SDS011;65893;51.698;-0.292;2023-04-06T14:12:22;2.13;;;0.60;;
76953;SDS011;65893;51.698;-0.292;2023-04-06T14:14:48;3.42;;;0.95;;
76953;SDS011;65893;51.698;-0.292;2023-04-06T14:17:15;1.60;;;0.38;;
76953;SDS011;65893;51.698;-0.292;2023-04-06T14:19:41;4.53;;;0.80;;
76953;SDS011;65893;51.698;-0.292;2023-04-06T14:22:08;2.60;;;0.57;;
76953;SDS011;65893;51.698;-0.292;2023-04-06T14:24:34;2.65;;;0.65;;
76953;SDS011;65893;51.698;-0.292;2023-04-06T14:27:00;1.85;;;0.60;;
76953;SDS011;65893;51.698;-0.292;2023-04-06T14:29:27;2.28;;;0.60;;
76953;SDS011;65893;51.698;-0.292;2023-04-06T14:31:53;5.65;;;0.70;;
76953;SDS011;65893;51.698;-0.292;2023-04-06T14:34:25;1.67;;;0.50;;
76953;SDS011;65893;51.698;-0.292;2023-04-06T14:36:51;2.40;;;0.80;;